sensor_id;sensor_type;location;lat;lon;timestamp;temperature;humidity
21169;DHT22;10742;51.816;8.662;2022-12-29T00:01:00;14.30;94.30
21169;DHT22;10742;51.816;8.662;2022-12-29T00:04:04;14.30;94.30
21169;DHT22;10742;51.816;8.662;2022-12-29T00:07:10;14.30;94.30
21169;DHT22;10742;51.816;8.662;2022-12-29T00:10:12;14.30;94.30
21169;DHT22;10742;51.816;8.662;2022-12-29T00:13:15;14.40;94.30
21169;DHT22;10742;51.816;8.662;2022-12-29T00:16:37;14.40;94.30
21169;DHT22;10742;51.816;8.662;2022-12-29T00:19:39;14.40;94.30
21169;DHT22;10742;51.816;8.662;2022-12-29T00:23:01;14.40;94.40
21169;DHT22;10742;51.816;8.662;2022-12-29T00:26:22;14.40;94.40
21169;DHT22;10742;51.816;8.662;2022-12-29T00:29:43;14.40;94.30
21169;DHT22;10742;51.816;8.662;2022-12-29T00:33:16;14.50;94.40
21169;DHT22;10742;51.816;8.662;2022-12-29T00:36:39;14.50;94.40
21169;DHT22;10742;51.816;8.662;2022-12-29T00:39:43;14.50;94.30
21169;DHT22;10742;51.816;8.662;2022-12-29T00:43:06;14.50;94.30
21169;DHT22;10742;51.816;8.662;2022-12-29T00:46:27;14.50;94.40
21169;DHT22;10742;51.816;8.662;2022-12-29T00:49:30;14.50;94.30
21169;DHT22;10742;51.816;8.662;2022-12-29T00:52:33;14.50;94.30
21169;DHT22;10742;51.816;8.662;2022-12-29T00:55:37;14.60;94.40
21169;DHT22;10742;51.816;8.662;2022-12-29T00:58:40;14.50;94.40
21169;DHT22;10742;51.816;8.662;2022-12-29T01:01:43;14.60;94.40
21169;DHT22;10742;51.816;8.662;2022-12-29T01:04:46;14.60;94.40
21169;DHT22;10742;51.816;8.662;2022-12-29T01:07:51;14.60;94.40
21169;DHT22;10742;51.816;8.662;2022-12-29T01:11:00;14.60;94.40
21169;DHT22;10742;51.816;8.662;2022-12-29T01:14:03;14.60;94.50
21169;DHT22;10742;51.816;8.662;2022-12-29T01:17:07;14.60;94.50
21169;DHT22;10742;51.816;8.662;2022-12-29T01:20:10;14.60;94.50
21169;DHT22;10742;51.816;8.662;2022-12-29T01:23:13;14.60;94.40
21169;DHT22;10742;51.816;8.662;2022-12-29T01:26:17;14.60;94.40
21169;DHT22;10742;51.816;8.662;2022-12-29T01:29:20;14.70;94.50
21169;DHT22;10742;51.816;8.662;2022-12-29T01:32:23;14.70;94.50
21169;DHT22;10742;51.816;8.662;2022-12-29T01:35:27;14.70;94.50
21169;DHT22;10742;51.816;8.662;2022-12-29T01:38:33;14.70;94.50
21169;DHT22;10742;51.816;8.662;2022-12-29T01:41:36;14.70;94.50
21169;DHT22;10742;51.816;8.662;2022-12-29T01:44:50;14.70;94.50
21169;DHT22;10742;51.816;8.662;2022-12-29T01:47:59;14.70;94.50
21169;DHT22;10742;51.816;8.662;2022-12-29T01:51:02;14.80;94.50
21169;DHT22;10742;51.816;8.662;2022-12-29T01:54:17;14.80;94.50
21169;DHT22;10742;51.816;8.662;2022-12-29T01:57:31;14.80;94.50
21169;DHT22;10742;51.816;8.662;2022-12-29T02:00:36;14.80;94.50
21169;DHT22;10742;51.816;8.662;2022-12-29T02:03:39;14.80;94.50
21169;DHT22;10742;51.816;8.662;2022-12-29T02:06:47;14.80;94.50
21169;DHT22;10742;51.816;8.662;2022-12-29T02:09:51;14.80;94.60
21169;DHT22;10742;51.816;8.662;2022-12-29T02:12:55;14.80;94.50
21169;DHT22;10742;51.816;8.662;2022-12-29T02:27:30;14.80;94.50
21169;DHT22;10742;51.816;8.662;2022-12-29T02:33:48;14.90;94.60
21169;DHT22;10742;51.816;8.662;2022-12-29T02:36:58;14.90;94.60
21169;DHT22;10742;51.816;8.662;2022-12-29T02:40:29;15.00;94.60
21169;DHT22;10742;51.816;8.662;2022-12-29T02:44:22;15.00;94.60
21169;DHT22;10742;51.816;8.662;2022-12-29T02:51:25;15.00;94.80
21169;DHT22;10742;51.816;8.662;2022-12-29T02:54:49;15.00;94.80
21169;DHT22;10742;51.816;8.662;2022-12-29T02:58:21;15.00;94.70
21169;DHT22;10742;51.816;8.662;2022-12-29T03:02:05;15.00;94.80
21169;DHT22;10742;51.816;8.662;2022-12-29T03:06:32;15.00;94.70
21169;DHT22;10742;51.816;8.662;2022-12-29T03:09:57;15.00;94.80
21169;DHT22;10742;51.816;8.662;2022-12-29T03:13:39;15.00;94.70
21169;DHT22;10742;51.816;8.662;2022-12-29T03:17:28;15.00;94.80
21169;DHT22;10742;51.816;8.662;2022-12-29T03:20:52;15.00;94.70
21169;DHT22;10742;51.816;8.662;2022-12-29T03:23:57;15.00;94.60
21169;DHT22;10742;51.816;8.662;2022-12-29T03:27:02;15.00;94.60
21169;DHT22;10742;51.816;8.662;2022-12-29T03:30:13;15.00;94.60
21169;DHT22;10742;51.816;8.662;2022-12-29T03:33:18;15.00;94.60
21169;DHT22;10742;51.816;8.662;2022-12-29T03:36:32;15.00;94.50
21169;DHT22;10742;51.816;8.662;2022-12-29T03:39:39;15.00;94.40
21169;DHT22;10742;51.816;8.662;2022-12-29T03:42:43;15.10;94.40
21169;DHT22;10742;51.816;8.662;2022-12-29T03:45:47;15.10;94.40
21169;DHT22;10742;51.816;8.662;2022-12-29T03:48:51;15.10;94.40
21169;DHT22;10742;51.816;8.662;2022-12-29T03:51:53;15.10;94.30
21169;DHT22;10742;51.816;8.662;2022-12-29T03:54:57;15.20;94.30
21169;DHT22;10742;51.816;8.662;2022-12-29T03:58:00;15.20;94.20
21169;DHT22;10742;51.816;8.662;2022-12-29T04:01:23;15.20;94.10
21169;DHT22;10742;51.816;8.662;2022-12-29T04:04:27;15.20;94.10
21169;DHT22;10742;51.816;8.662;2022-12-29T04:07:31;15.20;94.00
21169;DHT22;10742;51.816;8.662;2022-12-29T04:10:36;15.20;94.00
21169;DHT22;10742;51.816;8.662;2022-12-29T04:13:40;15.30;93.90
21169;DHT22;10742;51.816;8.662;2022-12-29T04:16:45;15.30;93.90
21169;DHT22;10742;51.816;8.662;2022-12-29T04:19:48;15.30;93.80
21169;DHT22;10742;51.816;8.662;2022-12-29T04:23:00;15.30;93.80
21169;DHT22;10742;51.816;8.662;2022-12-29T04:26:04;15.30;93.70
21169;DHT22;10742;51.816;8.662;2022-12-29T04:29:18;15.40;93.80
21169;DHT22;10742;51.816;8.662;2022-12-29T04:32:39;15.40;93.80
21169;DHT22;10742;51.816;8.662;2022-12-29T04:35:42;15.40;93.80
21169;DHT22;10742;51.816;8.662;2022-12-29T04:38:45;15.40;93.80
21169;DHT22;10742;51.816;8.662;2022-12-29T04:41:48;15.40;93.80
21169;DHT22;10742;51.816;8.662;2022-12-29T04:44:54;15.40;93.70
21169;DHT22;10742;51.816;8.662;2022-12-29T04:48:17;15.40;93.70
21169;DHT22;10742;51.816;8.662;2022-12-29T04:51:42;15.40;93.70
21169;DHT22;10742;51.816;8.662;2022-12-29T04:54:47;15.40;93.70
21169;DHT22;10742;51.816;8.662;2022-12-29T04:57:53;15.40;93.70
21169;DHT22;10742;51.816;8.662;2022-12-29T05:00:56;15.30;93.70
21169;DHT22;10742;51.816;8.662;2022-12-29T05:04:01;15.30;93.70
21169;DHT22;10742;51.816;8.662;2022-12-29T05:07:03;15.30;93.70
21169;DHT22;10742;51.816;8.662;2022-12-29T05:10:07;15.30;93.80
21169;DHT22;10742;51.816;8.662;2022-12-29T05:13:09;15.30;94.10
21169;DHT22;10742;51.816;8.662;2022-12-29T05:16:13;15.30;93.80
21169;DHT22;10742;51.816;8.662;2022-12-29T05:19:17;15.30;93.90
21169;DHT22;10742;51.816;8.662;2022-12-29T05:22:19;15.30;93.90
21169;DHT22;10742;51.816;8.662;2022-12-29T05:25:22;15.30;93.90
21169;DHT22;10742;51.816;8.662;2022-12-29T05:28:47;15.30;93.90
21169;DHT22;10742;51.816;8.662;2022-12-29T05:31:54;15.30;93.90
21169;DHT22;10742;51.816;8.662;2022-12-29T05:34:56;15.30;94.00
21169;DHT22;10742;51.816;8.662;2022-12-29T05:37:59;15.30;94.00
21169;DHT22;10742;51.816;8.662;2022-12-29T05:41:03;15.30;94.10
21169;DHT22;10742;51.816;8.662;2022-12-29T05:44:23;15.30;94.10
21169;DHT22;10742;51.816;8.662;2022-12-29T05:47:50;15.30;94.10
21169;DHT22;10742;51.816;8.662;2022-12-29T05:51:31;15.40;94.10
21169;DHT22;10742;51.816;8.662;2022-12-29T05:54:53;15.40;94.10
21169;DHT22;10742;51.816;8.662;2022-12-29T05:58:17;15.40;94.10
21169;DHT22;10742;51.816;8.662;2022-12-29T06:01:38;15.40;94.10
21169;DHT22;10742;51.816;8.662;2022-12-29T06:05:01;15.40;94.10
21169;DHT22;10742;51.816;8.662;2022-12-29T06:08:22;15.40;94.10
21169;DHT22;10742;51.816;8.662;2022-12-29T06:11:44;15.40;94.00
21169;DHT22;10742;51.816;8.662;2022-12-29T06:15:06;15.40;94.00
21169;DHT22;10742;51.816;8.662;2022-12-29T06:18:28;15.40;94.00
21169;DHT22;10742;51.816;8.662;2022-12-29T06:21:51;15.40;94.00
21169;DHT22;10742;51.816;8.662;2022-12-29T06:25:13;15.40;93.90
21169;DHT22;10742;51.816;8.662;2022-12-29T06:28:37;15.40;93.80
21169;DHT22;10742;51.816;8.662;2022-12-29T06:31:59;15.40;93.80
21169;DHT22;10742;51.816;8.662;2022-12-29T06:35:23;15.40;93.80
21169;DHT22;10742;51.816;8.662;2022-12-29T06:38:45;15.40;93.70
21169;DHT22;10742;51.816;8.662;2022-12-29T06:42:09;15.50;93.70
21169;DHT22;10742;51.816;8.662;2022-12-29T06:45:58;15.50;93.70
21169;DHT22;10742;51.816;8.662;2022-12-29T06:49:20;15.50;93.70
21169;DHT22;10742;51.816;8.662;2022-12-29T06:52:41;15.50;93.70
21169;DHT22;10742;51.816;8.662;2022-12-29T06:56:02;15.50;93.60
21169;DHT22;10742;51.816;8.662;2022-12-29T06:59:24;15.50;93.60
21169;DHT22;10742;51.816;8.662;2022-12-29T07:02:45;15.50;93.50
21169;DHT22;10742;51.816;8.662;2022-12-29T07:06:08;15.50;93.50
21169;DHT22;10742;51.816;8.662;2022-12-29T07:09:30;15.50;93.50
21169;DHT22;10742;51.816;8.662;2022-12-29T07:12:51;15.60;93.50
21169;DHT22;10742;51.816;8.662;2022-12-29T07:16:12;15.50;93.40
21169;DHT22;10742;51.816;8.662;2022-12-29T07:19:34;15.50;93.40
21169;DHT22;10742;51.816;8.662;2022-12-29T07:22:56;15.50;93.30
21169;DHT22;10742;51.816;8.662;2022-12-29T07:26:17;15.50;93.30
21169;DHT22;10742;51.816;8.662;2022-12-29T07:29:20;15.50;93.30
21169;DHT22;10742;51.816;8.662;2022-12-29T07:32:22;15.50;93.30
21169;DHT22;10742;51.816;8.662;2022-12-29T07:35:26;15.50;93.20
21169;DHT22;10742;51.816;8.662;2022-12-29T07:38:28;15.60;93.10
21169;DHT22;10742;51.816;8.662;2022-12-29T07:41:32;15.60;93.10
21169;DHT22;10742;51.816;8.662;2022-12-29T07:44:36;15.60;93.10
21169;DHT22;10742;51.816;8.662;2022-12-29T07:47:51;15.60;93.00
21169;DHT22;10742;51.816;8.662;2022-12-29T07:50:53;15.60;93.00
21169;DHT22;10742;51.816;8.662;2022-12-29T07:53:56;15.60;93.00
21169;DHT22;10742;51.816;8.662;2022-12-29T07:57:01;15.60;92.90
21169;DHT22;10742;51.816;8.662;2022-12-29T08:00:04;15.60;92.90
21169;DHT22;10742;51.816;8.662;2022-12-29T08:03:12;15.60;92.90
21169;DHT22;10742;51.816;8.662;2022-12-29T08:06:15;15.60;93.00
21169;DHT22;10742;51.816;8.662;2022-12-29T08:09:18;15.60;93.00
21169;DHT22;10742;51.816;8.662;2022-12-29T08:12:23;15.60;93.10
21169;DHT22;10742;51.816;8.662;2022-12-29T08:15:26;15.60;93.00
21169;DHT22;10742;51.816;8.662;2022-12-29T08:18:31;15.60;93.10
21169;DHT22;10742;51.816;8.662;2022-12-29T08:21:35;15.50;93.10
21169;DHT22;10742;51.816;8.662;2022-12-29T08:24:37;15.50;93.20
21169;DHT22;10742;51.816;8.662;2022-12-29T08:27:40;15.50;93.20
21169;DHT22;10742;51.816;8.662;2022-12-29T08:30:42;15.40;93.20
21169;DHT22;10742;51.816;8.662;2022-12-29T08:33:45;15.40;93.30
21169;DHT22;10742;51.816;8.662;2022-12-29T08:36:47;15.40;93.30
21169;DHT22;10742;51.816;8.662;2022-12-29T08:39:50;15.40;93.40
21169;DHT22;10742;51.816;8.662;2022-12-29T08:42:53;15.40;93.40
21169;DHT22;10742;51.816;8.662;2022-12-29T08:45:59;15.40;93.50
21169;DHT22;10742;51.816;8.662;2022-12-29T08:49:02;15.40;93.50
21169;DHT22;10742;51.816;8.662;2022-12-29T08:52:05;15.30;93.40
21169;DHT22;10742;51.816;8.662;2022-12-29T08:55:10;15.30;93.40
21169;DHT22;10742;51.816;8.662;2022-12-29T08:58:13;15.30;93.30
21169;DHT22;10742;51.816;8.662;2022-12-29T09:01:18;15.30;93.20
21169;DHT22;10742;51.816;8.662;2022-12-29T09:04:39;15.20;93.10
21169;DHT22;10742;51.816;8.662;2022-12-29T09:08:00;15.20;93.30
21169;DHT22;10742;51.816;8.662;2022-12-29T09:11:24;15.20;93.40
21169;DHT22;10742;51.816;8.662;2022-12-29T09:14:46;15.20;93.40
21169;DHT22;10742;51.816;8.662;2022-12-29T09:18:09;15.20;93.40
21169;DHT22;10742;51.816;8.662;2022-12-29T09:21:32;15.20;93.50
21169;DHT22;10742;51.816;8.662;2022-12-29T09:24:54;15.30;93.60
21169;DHT22;10742;51.816;8.662;2022-12-29T09:27:57;15.40;93.70
21169;DHT22;10742;51.816;8.662;2022-12-29T09:31:00;15.40;93.50
21169;DHT22;10742;51.816;8.662;2022-12-29T09:34:03;15.50;93.30
21169;DHT22;10742;51.816;8.662;2022-12-29T09:37:05;15.60;93.40
21169;DHT22;10742;51.816;8.662;2022-12-29T09:40:30;15.60;93.30
21169;DHT22;10742;51.816;8.662;2022-12-29T09:46:42;15.90;93.10
21169;DHT22;10742;51.816;8.662;2022-12-29T09:56:26;16.10;92.30
21169;DHT22;10742;51.816;8.662;2022-12-29T09:59:41;16.20;92.30
21169;DHT22;10742;51.816;8.662;2022-12-29T10:06:19;16.20;92.20
21169;DHT22;10742;51.816;8.662;2022-12-29T10:16:12;16.40;91.60
21169;DHT22;10742;51.816;8.662;2022-12-29T10:19:40;16.50;91.30
21169;DHT22;10742;51.816;8.662;2022-12-29T10:26:16;16.40;91.10
21169;DHT22;10742;51.816;8.662;2022-12-29T10:29:22;16.30;91.20
21169;DHT22;10742;51.816;8.662;2022-12-29T10:32:39;16.30;91.10
21169;DHT22;10742;51.816;8.662;2022-12-29T10:35:44;16.20;90.60
21169;DHT22;10742;51.816;8.662;2022-12-29T10:42:27;16.10;90.60
21169;DHT22;10742;51.816;8.662;2022-12-29T10:45:31;16.00;90.30
21169;DHT22;10742;51.816;8.662;2022-12-29T10:48:38;15.90;90.60
21169;DHT22;10742;51.816;8.662;2022-12-29T10:51:43;15.80;90.70
21169;DHT22;10742;51.816;8.662;2022-12-29T10:55:12;15.80;90.80
21169;DHT22;10742;51.816;8.662;2022-12-29T10:58:34;15.70;90.90
21169;DHT22;10742;51.816;8.662;2022-12-29T11:05:54;15.80;90.90
21169;DHT22;10742;51.816;8.662;2022-12-29T11:09:27;15.70;90.90
21169;DHT22;10742;51.816;8.662;2022-12-29T11:16:34;15.80;90.80
21169;DHT22;10742;51.816;8.662;2022-12-29T11:19:55;15.90;91.00
21169;DHT22;10742;51.816;8.662;2022-12-29T11:26:52;16.00;90.70
21169;DHT22;10742;51.816;8.662;2022-12-29T11:30:27;16.10;90.70
21169;DHT22;10742;51.816;8.662;2022-12-29T11:33:49;16.10;90.50
21169;DHT22;10742;51.816;8.662;2022-12-29T11:37:14;16.10;90.70
21169;DHT22;10742;51.816;8.662;2022-12-29T11:40:38;16.20;90.40
21169;DHT22;10742;51.816;8.662;2022-12-29T11:43:43;16.10;90.10
21169;DHT22;10742;51.816;8.662;2022-12-29T11:46:49;16.10;90.00
21169;DHT22;10742;51.816;8.662;2022-12-29T11:49:55;16.10;89.80
21169;DHT22;10742;51.816;8.662;2022-12-29T11:53:01;16.10;89.60
21169;DHT22;10742;51.816;8.662;2022-12-29T11:56:09;16.10;89.30
21169;DHT22;10742;51.816;8.662;2022-12-29T11:59:40;16.10;89.20
21169;DHT22;10742;51.816;8.662;2022-12-29T12:03:07;16.10;88.70
21169;DHT22;10742;51.816;8.662;2022-12-29T12:06:17;16.10;88.70
21169;DHT22;10742;51.816;8.662;2022-12-29T12:13:02;16.10;88.10
21169;DHT22;10742;51.816;8.662;2022-12-29T12:16:08;16.10;88.60
21169;DHT22;10742;51.816;8.662;2022-12-29T12:22:38;16.10;88.90
21169;DHT22;10742;51.816;8.662;2022-12-29T12:25:56;16.00;87.40
21169;DHT22;10742;51.816;8.662;2022-12-29T12:29:20;16.00;87.70
21169;DHT22;10742;51.816;8.662;2022-12-29T12:39:54;15.90;87.40
21169;DHT22;10742;51.816;8.662;2022-12-29T12:47:10;15.80;87.10
21169;DHT22;10742;51.816;8.662;2022-12-29T13:01:03;15.70;87.00
21169;DHT22;10742;51.816;8.662;2022-12-29T13:18:33;15.60;87.00
21169;DHT22;10742;51.816;8.662;2022-12-29T13:28:38;15.50;86.80
21169;DHT22;10742;51.816;8.662;2022-12-29T13:32:19;15.50;87.40
21169;DHT22;10742;51.816;8.662;2022-12-29T13:42:19;15.50;86.90
21169;DHT22;10742;51.816;8.662;2022-12-29T13:45:26;15.50;87.40
21169;DHT22;10742;51.816;8.662;2022-12-29T13:52:22;15.40;86.70
21169;DHT22;10742;51.816;8.662;2022-12-29T13:55:50;15.40;86.60
21169;DHT22;10742;51.816;8.662;2022-12-29T13:58:58;15.40;86.60
21169;DHT22;10742;51.816;8.662;2022-12-29T14:08:25;15.40;87.10
21169;DHT22;10742;51.816;8.662;2022-12-29T14:11:39;15.30;87.10
21169;DHT22;10742;51.816;8.662;2022-12-29T14:14:44;15.30;86.50
21169;DHT22;10742;51.816;8.662;2022-12-29T14:18:10;15.30;87.00
21169;DHT22;10742;51.816;8.662;2022-12-29T14:21:20;15.30;86.50
21169;DHT22;10742;51.816;8.662;2022-12-29T14:30:53;15.20;87.20
21169;DHT22;10742;51.816;8.662;2022-12-29T14:37:36;15.20;86.90
21169;DHT22;10742;51.816;8.662;2022-12-29T14:40:41;15.20;86.90
21169;DHT22;10742;51.816;8.662;2022-12-29T14:43:57;15.20;87.40
21169;DHT22;10742;51.816;8.662;2022-12-29T14:47:08;15.10;86.90
21169;DHT22;10742;51.816;8.662;2022-12-29T14:53:48;15.10;87.50
21169;DHT22;10742;51.816;8.662;2022-12-29T14:57:00;15.10;87.10
21169;DHT22;10742;51.816;8.662;2022-12-29T15:00:27;15.10;87.50
21169;DHT22;10742;51.816;8.662;2022-12-29T15:03:36;15.10;87.50
21169;DHT22;10742;51.816;8.662;2022-12-29T15:06:39;15.10;87.80
21169;DHT22;10742;51.816;8.662;2022-12-29T15:09:47;15.00;87.90
21169;DHT22;10742;51.816;8.662;2022-12-29T15:12:54;15.00;88.10
21169;DHT22;10742;51.816;8.662;2022-12-29T15:15:57;15.00;88.10
21169;DHT22;10742;51.816;8.662;2022-12-29T15:18:59;15.00;88.20
21169;DHT22;10742;51.816;8.662;2022-12-29T15:22:02;15.00;88.10
21169;DHT22;10742;51.816;8.662;2022-12-29T15:25:12;15.00;88.10
21169;DHT22;10742;51.816;8.662;2022-12-29T15:28:17;14.90;88.00
21169;DHT22;10742;51.816;8.662;2022-12-29T15:31:24;14.90;88.00
21169;DHT22;10742;51.816;8.662;2022-12-29T15:34:30;14.90;87.90
21169;DHT22;10742;51.816;8.662;2022-12-29T15:37:34;14.90;88.10
21169;DHT22;10742;51.816;8.662;2022-12-29T15:40:39;14.90;88.00
21169;DHT22;10742;51.816;8.662;2022-12-29T15:50:24;14.90;87.80
21169;DHT22;10742;51.816;8.662;2022-12-29T15:53:33;14.80;87.80
21169;DHT22;10742;51.816;8.662;2022-12-29T15:56:35;14.80;87.90
21169;DHT22;10742;51.816;8.662;2022-12-29T15:59:46;14.80;88.10
21169;DHT22;10742;51.816;8.662;2022-12-29T16:02:49;14.80;87.80
21169;DHT22;10742;51.816;8.662;2022-12-29T16:09:48;14.80;87.60
21169;DHT22;10742;51.816;8.662;2022-12-29T16:13:20;14.80;88.00
21169;DHT22;10742;51.816;8.662;2022-12-29T16:16:45;14.80;87.80
21169;DHT22;10742;51.816;8.662;2022-12-29T16:20:00;14.80;87.80
21169;DHT22;10742;51.816;8.662;2022-12-29T16:23:05;14.80;87.50
21169;DHT22;10742;51.816;8.662;2022-12-29T16:26:15;14.80;87.80
21169;DHT22;10742;51.816;8.662;2022-12-29T16:29:20;14.80;87.30
21169;DHT22;10742;51.816;8.662;2022-12-29T16:32:29;14.80;87.50
21169;DHT22;10742;51.816;8.662;2022-12-29T16:38:42;14.80;86.90
21169;DHT22;10742;51.816;8.662;2022-12-29T16:41:44;14.80;87.30
21169;DHT22;10742;51.816;8.662;2022-12-29T16:44:47;14.80;87.20
21169;DHT22;10742;51.816;8.662;2022-12-29T16:51:15;14.80;86.50
21169;DHT22;10742;51.816;8.662;2022-12-29T16:54:24;14.80;86.70
21169;DHT22;10742;51.816;8.662;2022-12-29T16:57:32;14.70;86.60
21169;DHT22;10742;51.816;8.662;2022-12-29T17:00:36;14.70;86.70
21169;DHT22;10742;51.816;8.662;2022-12-29T17:03:42;14.70;86.70
21169;DHT22;10742;51.816;8.662;2022-12-29T17:06:46;14.80;86.70
21169;DHT22;10742;51.816;8.662;2022-12-29T17:09:49;14.70;86.70
21169;DHT22;10742;51.816;8.662;2022-12-29T17:12:52;14.70;86.60
21169;DHT22;10742;51.816;8.662;2022-12-29T17:15:54;14.70;86.60
21169;DHT22;10742;51.816;8.662;2022-12-29T17:18:58;14.70;86.40
21169;DHT22;10742;51.816;8.662;2022-12-29T17:22:02;14.70;86.30
21169;DHT22;10742;51.816;8.662;2022-12-29T17:25:05;14.70;86.20
21169;DHT22;10742;51.816;8.662;2022-12-29T17:28:22;14.70;86.30
21169;DHT22;10742;51.816;8.662;2022-12-29T17:31:25;14.70;85.80
21169;DHT22;10742;51.816;8.662;2022-12-29T17:34:28;14.70;86.20
21169;DHT22;10742;51.816;8.662;2022-12-29T17:37:37;14.70;86.10
21169;DHT22;10742;51.816;8.662;2022-12-29T17:40:39;14.60;85.70
21169;DHT22;10742;51.816;8.662;2022-12-29T17:43:42;14.70;86.10
21169;DHT22;10742;51.816;8.662;2022-12-29T17:46:45;14.60;85.90
21169;DHT22;10742;51.816;8.662;2022-12-29T17:49:48;14.60;85.80
21169;DHT22;10742;51.816;8.662;2022-12-29T17:52:56;14.60;85.90
21169;DHT22;10742;51.816;8.662;2022-12-29T17:56:02;14.60;85.50
21169;DHT22;10742;51.816;8.662;2022-12-29T17:59:11;14.60;85.80
21169;DHT22;10742;51.816;8.662;2022-12-29T18:02:28;14.60;85.50
21169;DHT22;10742;51.816;8.662;2022-12-29T18:05:32;14.60;85.50
21169;DHT22;10742;51.816;8.662;2022-12-29T18:08:35;14.50;85.60
21169;DHT22;10742;51.816;8.662;2022-12-29T18:11:40;14.50;85.50
21169;DHT22;10742;51.816;8.662;2022-12-29T18:14:43;14.50;85.50
21169;DHT22;10742;51.816;8.662;2022-12-29T18:17:46;14.50;85.80
21169;DHT22;10742;51.816;8.662;2022-12-29T18:20:51;14.40;85.70
21169;DHT22;10742;51.816;8.662;2022-12-29T18:24:13;14.40;85.80
21169;DHT22;10742;51.816;8.662;2022-12-29T18:27:36;14.40;86.00
21169;DHT22;10742;51.816;8.662;2022-12-29T18:30:38;14.40;86.10
21169;DHT22;10742;51.816;8.662;2022-12-29T18:33:41;14.40;86.10
21169;DHT22;10742;51.816;8.662;2022-12-29T18:36:44;14.40;86.20
21169;DHT22;10742;51.816;8.662;2022-12-29T18:39:47;14.40;86.30
21169;DHT22;10742;51.816;8.662;2022-12-29T18:42:49;14.30;86.30
21169;DHT22;10742;51.816;8.662;2022-12-29T18:45:52;14.30;86.30
21169;DHT22;10742;51.816;8.662;2022-12-29T18:48:55;14.30;86.30
21169;DHT22;10742;51.816;8.662;2022-12-29T18:51:57;14.30;86.30
21169;DHT22;10742;51.816;8.662;2022-12-29T18:55:00;14.30;86.60
21169;DHT22;10742;51.816;8.662;2022-12-29T18:58:02;14.30;87.20
21169;DHT22;10742;51.816;8.662;2022-12-29T19:01:06;14.30;87.60
21169;DHT22;10742;51.816;8.662;2022-12-29T19:04:12;14.20;87.60
21169;DHT22;10742;51.816;8.662;2022-12-29T19:07:15;14.10;87.60
21169;DHT22;10742;51.816;8.662;2022-12-29T19:10:19;14.00;87.60
21169;DHT22;10742;51.816;8.662;2022-12-29T19:13:22;13.90;87.70
21169;DHT22;10742;51.816;8.662;2022-12-29T19:16:30;13.80;87.60
21169;DHT22;10742;51.816;8.662;2022-12-29T19:19:33;13.70;87.90
21169;DHT22;10742;51.816;8.662;2022-12-29T19:22:36;13.70;88.30
21169;DHT22;10742;51.816;8.662;2022-12-29T19:25:40;13.60;88.70
21169;DHT22;10742;51.816;8.662;2022-12-29T19:28:43;13.50;89.10
21169;DHT22;10742;51.816;8.662;2022-12-29T19:31:46;13.40;89.10
21169;DHT22;10742;51.816;8.662;2022-12-29T19:34:49;13.30;89.50
21169;DHT22;10742;51.816;8.662;2022-12-29T19:37:51;13.20;89.60
21169;DHT22;10742;51.816;8.662;2022-12-29T19:40:55;13.10;90.00
21169;DHT22;10742;51.816;8.662;2022-12-29T19:43:58;13.00;89.90
21169;DHT22;10742;51.816;8.662;2022-12-29T19:47:02;12.80;90.30
21169;DHT22;10742;51.816;8.662;2022-12-29T19:50:06;12.80;90.50
21169;DHT22;10742;51.816;8.662;2022-12-29T19:53:09;12.70;90.60
21169;DHT22;10742;51.816;8.662;2022-12-29T19:56:14;12.70;90.80
21169;DHT22;10742;51.816;8.662;2022-12-29T19:59:17;12.60;90.90
21169;DHT22;10742;51.816;8.662;2022-12-29T20:02:26;12.60;90.90
21169;DHT22;10742;51.816;8.662;2022-12-29T20:05:29;12.60;91.20
21169;DHT22;10742;51.816;8.662;2022-12-29T20:08:31;12.50;91.20
21169;DHT22;10742;51.816;8.662;2022-12-29T20:11:34;12.50;91.40
21169;DHT22;10742;51.816;8.662;2022-12-29T20:14:38;12.50;91.50
21169;DHT22;10742;51.816;8.662;2022-12-29T20:17:41;12.50;91.60
21169;DHT22;10742;51.816;8.662;2022-12-29T20:21:11;12.50;91.60
21169;DHT22;10742;51.816;8.662;2022-12-29T20:24:15;12.50;91.60
21169;DHT22;10742;51.816;8.662;2022-12-29T20:27:17;12.50;91.60
21169;DHT22;10742;51.816;8.662;2022-12-29T20:30:20;12.50;91.60
21169;DHT22;10742;51.816;8.662;2022-12-29T20:33:22;12.50;91.60
21169;DHT22;10742;51.816;8.662;2022-12-29T20:36:27;12.40;91.60
21169;DHT22;10742;51.816;8.662;2022-12-29T20:39:30;12.40;91.70
21169;DHT22;10742;51.816;8.662;2022-12-29T20:42:33;12.40;91.70
21169;DHT22;10742;51.816;8.662;2022-12-29T20:45:35;12.30;92.00
21169;DHT22;10742;51.816;8.662;2022-12-29T20:48:39;12.30;91.70
21169;DHT22;10742;51.816;8.662;2022-12-29T20:51:43;12.30;91.70
21169;DHT22;10742;51.816;8.662;2022-12-29T20:55:06;12.20;91.70
21169;DHT22;10742;51.816;8.662;2022-12-29T20:58:10;12.20;91.70
21169;DHT22;10742;51.816;8.662;2022-12-29T21:01:25;12.20;91.70
21169;DHT22;10742;51.816;8.662;2022-12-29T21:04:29;12.20;91.70
21169;DHT22;10742;51.816;8.662;2022-12-29T21:08:03;12.20;91.60
21169;DHT22;10742;51.816;8.662;2022-12-29T21:11:05;12.10;91.50
21169;DHT22;10742;51.816;8.662;2022-12-29T21:14:08;12.10;91.50
21169;DHT22;10742;51.816;8.662;2022-12-29T21:17:11;12.10;91.50
21169;DHT22;10742;51.816;8.662;2022-12-29T21:20:15;12.10;91.50
21169;DHT22;10742;51.816;8.662;2022-12-29T21:23:32;12.00;91.50
21169;DHT22;10742;51.816;8.662;2022-12-29T21:26:35;12.00;91.50
21169;DHT22;10742;51.816;8.662;2022-12-29T21:29:37;12.00;91.50
21169;DHT22;10742;51.816;8.662;2022-12-29T21:32:41;12.00;91.50
21169;DHT22;10742;51.816;8.662;2022-12-29T21:35:44;12.00;91.50
21169;DHT22;10742;51.816;8.662;2022-12-29T21:38:48;12.00;91.40
21169;DHT22;10742;51.816;8.662;2022-12-29T21:41:50;12.00;91.50
21169;DHT22;10742;51.816;8.662;2022-12-29T21:44:53;11.90;91.40
21169;DHT22;10742;51.816;8.662;2022-12-29T21:48:18;11.90;91.50
21169;DHT22;10742;51.816;8.662;2022-12-29T21:51:25;11.90;91.50
21169;DHT22;10742;51.816;8.662;2022-12-29T21:54:47;11.90;91.50
21169;DHT22;10742;51.816;8.662;2022-12-29T21:58:01;11.90;91.50
21169;DHT22;10742;51.816;8.662;2022-12-29T22:01:24;11.90;91.50
21169;DHT22;10742;51.816;8.662;2022-12-29T22:04:45;11.90;91.60
21169;DHT22;10742;51.816;8.662;2022-12-29T22:08:07;11.90;91.60
21169;DHT22;10742;51.816;8.662;2022-12-29T22:11:29;11.90;91.90
21169;DHT22;10742;51.816;8.662;2022-12-29T22:14:50;11.90;91.60
21169;DHT22;10742;51.816;8.662;2022-12-29T22:17:53;11.90;91.50
21169;DHT22;10742;51.816;8.662;2022-12-29T22:20:57;11.90;91.50
21169;DHT22;10742;51.816;8.662;2022-12-29T22:23:59;11.90;91.50
21169;DHT22;10742;51.816;8.662;2022-12-29T22:27:02;11.90;91.50
21169;DHT22;10742;51.816;8.662;2022-12-29T22:30:06;11.90;91.50
21169;DHT22;10742;51.816;8.662;2022-12-29T22:33:08;11.90;91.50
21169;DHT22;10742;51.816;8.662;2022-12-29T22:36:11;11.90;91.50